Time;durP1;ratioP1;P1;durP2;ratioP2;P2;SDS_P1;SDS_P2;PMS_P1;PMS_P2;Temp;Humidity;BMP_temperature;BMP_pressure;BME280_temperature;BME280_humidity;BME280_pressure;Samples;Min_cycle;Max_cycle;Signal;HPM_P1;HPM_P2
2023/12/21 00:01:08;;;;;;;0.90;0.90;;;;;;;5.24;74.44;98325.59;5027877;28;20033;-78
2023/12/21 00:03:33;;;;;;;0.80;0.80;;;;;;;5.19;74.88;98329.78;5029066;28;20037;-78
2023/12/21 00:05:58;;;;;;;0.90;0.90;;;;;;;5.26;74.49;98325.66;5030146;28;20029;-78
2023/12/21 00:08:24;;;;;;;0.90;0.90;;;;;;;5.13;74.99;98314.56;5030295;28;20483;-78
2023/12/21 00:10:49;;;;;;;0.88;0.88;;;;;;;5.19;74.79;98323.59;5028603;28;20029;-78
2023/12/21 00:13:15;;;;;;;0.80;0.80;;;;;;;5.18;74.97;98322.69;5037198;28;20611;-77
2023/12/21 00:15:40;;;;;;;0.90;0.90;;;;;;;5.21;75.08;98324.56;5031033;28;20041;-77
2023/12/21 00:18:05;;;;;;;0.90;0.90;;;;;;;5.15;75.22;98318.16;5034608;28;20407;-78
2023/12/21 00:20:31;;;;;;;1.00;1.00;;;;;;;5.11;75.66;98315.31;5031532;28;20692;-78
2023/12/21 00:22:56;;;;;;;1.00;1.00;;;;;;;4.85;77.01;98299.22;5036514;28;20495;-80
2023/12/21 00:25:22;;;;;;;0.98;0.98;;;;;;;4.78;77.02;98296.22;5032447;28;20082;-78
2023/12/21 00:27:48;;;;;;;0.90;0.90;;;;;;;4.66;77.90;98293.97;5029661;28;20128;-78
2023/12/21 00:30:14;;;;;;;0.90;0.90;;;;;;;4.74;78.14;98296.91;5031721;28;20528;-79
2023/12/21 00:32:39;;;;;;;0.93;0.93;;;;;;;4.71;78.20;98296.81;5034756;28;20090;-80
2023/12/21 00:35:05;;;;;;;1.00;1.00;;;;;;;4.78;77.43;98310.34;5032504;28;20712;-78
2023/12/21 00:37:36;;;;;;;0.90;0.90;;;;;;;4.89;77.06;98306.47;5033336;28;20727;-78
2023/12/21 00:40:03;;;;;;;0.90;0.90;;;;;;;4.89;77.32;98311.75;5033666;28;20033;-78
2023/12/21 00:42:32;;;;;;;0.90;0.90;;;;;;;4.86;78.01;98297.47;5035214;28;20037;-78
2023/12/21 00:44:57;;;;;;;1.00;1.00;;;;;;;4.87;77.38;98294.00;5022083;28;20407;-78
2023/12/21 00:47:23;;;;;;;0.90;0.90;;;;;;;4.83;78.06;98302.63;5035728;28;20244;-78
2023/12/21 00:49:48;;;;;;;0.82;0.82;;;;;;;4.84;78.83;98296.53;5038765;28;21759;-77
2023/12/21 00:52:14;;;;;;;0.90;0.90;;;;;;;4.70;79.85;98295.00;5032491;28;20041;-77
2023/12/21 00:54:39;;;;;;;1.00;1.00;;;;;;;4.61;79.96;98301.69;5032594;28;20033;-79
2023/12/21 00:57:05;;;;;;;1.00;1.00;;;;;;;4.56;81.17;98297.91;5033373;28;20048;-78
2023/12/21 00:59:30;;;;;;;1.00;1.00;;;;;;;4.47;81.83;98289.56;5034517;28;20030;-77
2023/12/21 01:01:55;;;;;;;0.98;0.98;;;;;;;4.36;83.67;98278.53;5035130;28;20919;-79
2023/12/21 01:04:24;;;;;;;0.93;0.93;;;;;;;4.40;82.92;98270.72;5034741;28;20037;-78
2023/12/21 01:06:50;;;;;;;1.10;1.10;;;;;;;4.41;82.71;98267.25;5035480;28;20034;-78
2023/12/21 01:09:15;;;;;;;0.90;0.90;;;;;;;4.42;82.90;98266.44;5033738;28;20041;-79
2023/12/21 01:11:41;;;;;;;1.00;1.00;;;;;;;4.42;82.19;98269.06;5033395;28;20057;-78
2023/12/21 01:14:06;;;;;;;0.90;0.90;;;;;;;4.44;81.66;98254.19;5037331;28;20037;-78
2023/12/21 01:16:32;;;;;;;0.90;0.90;;;;;;;4.44;82.89;98254.19;5034937;28;20043;-79
2023/12/21 01:18:58;;;;;;;0.90;0.90;;;;;;;4.44;82.53;98239.25;5034848;28;20044;-79
2023/12/21 01:21:24;;;;;;;0.90;0.90;;;;;;;4.42;82.05;98233.00;5040375;28;20097;-78
2023/12/21 01:23:50;;;;;;;1.00;1.00;;;;;;;4.48;81.53;98232.38;5033180;28;20064;-79
2023/12/21 01:26:15;;;;;;;0.98;0.98;;;;;;;4.46;81.13;98228.78;5035218;28;20748;-78
2023/12/21 01:28:41;;;;;;;0.90;0.90;;;;;;;4.46;81.54;98229.66;5049804;28;20112;-80
2023/12/21 01:31:07;;;;;;;0.90;0.90;;;;;;;4.57;80.98;98216.94;5033914;28;20033;-79
2023/12/21 01:33:32;;;;;;;0.90;0.90;;;;;;;4.63;80.52;98209.25;5038143;28;20114;-78
2023/12/21 01:35:57;;;;;;;1.00;1.00;;;;;;;4.56;81.22;98216.03;5043232;28;20037;-78
2023/12/21 01:38:23;;;;;;;0.90;0.90;;;;;;;4.69;80.53;98208.63;5033480;28;20093;-78
2023/12/21 01:40:48;;;;;;;0.90;0.90;;;;;;;4.69;80.48;98209.53;5023901;28;20395;-78
2023/12/21 01:43:14;;;;;;;0.90;0.90;;;;;;;4.61;81.42;98208.31;5038825;28;20669;-79
2023/12/21 01:45:39;;;;;;;0.90;0.90;;;;;;;4.68;81.12;98202.44;5031242;28;20045;-79
2023/12/21 01:48:05;;;;;;;0.90;0.90;;;;;;;4.62;81.16;98197.78;5031605;28;20041;-79
2023/12/21 01:50:30;;;;;;;0.90;0.90;;;;;;;4.74;80.35;98200.06;5030456;28;20029;-78
2023/12/21 01:52:59;;;;;;;0.93;0.93;;;;;;;4.79;80.25;98190.63;5032486;28;20602;-79
2023/12/21 01:55:25;;;;;;;0.95;0.95;;;;;;;4.76;80.44;98179.91;5034217;28;20049;-79
2023/12/21 01:57:53;;;;;;;0.98;0.98;;;;;;;4.83;80.08;98181.06;5036227;28;20091;-79
2023/12/21 02:00:19;;;;;;;1.00;1.00;;;;;;;4.94;79.06;98176.25;5031608;28;20116;-79
2023/12/21 02:02:45;;;;;;;0.90;0.90;;;;;;;5.05;79.24;98157.34;5031048;28;20206;-78
2023/12/21 02:05:10;;;;;;;0.90;0.90;;;;;;;5.03;78.50;98153.72;5031701;28;20124;-79
2023/12/21 02:07:36;;;;;;;0.90;0.90;;;;;;;5.14;78.17;98156.81;5034192;28;20077;-79
2023/12/21 02:10:01;;;;;;;0.90;0.90;;;;;;;5.18;78.09;98157.84;5035192;28;20038;-79
2023/12/21 02:12:27;;;;;;;0.95;0.95;;;;;;;5.25;77.54;98147.56;5019447;28;20053;-79
2023/12/21 02:14:52;;;;;;;0.90;0.90;;;;;;;5.26;77.17;98146.72;5034354;28;20040;-79
2023/12/21 02:17:21;;;;;;;1.00;1.00;;;;;;;5.39;77.02;98142.81;5033273;28;20040;-79
2023/12/21 02:19:48;;;;;;;0.90;0.90;;;;;;;5.39;76.40;98132.25;5030637;28;20041;-79
2023/12/21 02:22:15;;;;;;;;;;;;;;;5.42;76.44;98135.03;5032792;28;20116;-79
2023/12/21 02:24:40;;;;;;;1.05;1.05;;;;;;;5.37;77.12;98123.38;5031854;28;19983;-79
2023/12/21 02:27:06;;;;;;;0.90;0.90;;;;;;;5.40;76.43;98123.47;5045859;28;20511;-78
2023/12/21 02:29:31;;;;;;;0.90;0.90;;;;;;;5.42;76.48;98126.19;5031266;28;20127;-79
2023/12/21 02:31:57;;;;;;;0.90;0.90;;;;;;;5.50;76.15;98108.84;5033342;28;20781;-79
2023/12/21 02:34:22;;;;;;;0.80;0.80;;;;;;;5.52;76.02;98100.16;5031682;28;20048;-79
2023/12/21 02:36:47;;;;;;;0.90;0.90;;;;;;;5.52;75.96;98099.25;5030745;28;20112;-78
2023/12/21 02:39:13;;;;;;;0.80;0.80;;;;;;;5.52;76.26;98096.59;5030421;28;21073;-78
2023/12/21 02:41:38;;;;;;;0.90;0.90;;;;;;;5.54;75.46;98094.91;5030175;28;20037;-78
2023/12/21 02:44:04;;;;;;;0.90;0.90;;;;;;;5.62;75.34;98086.41;5033253;28;20502;-78
2023/12/21 02:46:30;;;;;;;0.80;0.80;;;;;;;5.62;75.51;98090.81;5032477;28;20487;-78
2023/12/21 02:48:55;;;;;;;0.88;0.88;;;;;;;5.83;74.14;98088.97;5030154;28;20441;-77
2023/12/21 02:51:20;;;;;;;0.80;0.80;;;;;;;5.77;74.45;98083.44;5030440;28;20041;-78
2023/12/21 02:53:46;;;;;;;0.90;0.90;;;;;;;5.77;74.41;98077.25;5030791;28;20038;-79
2023/12/21 02:56:11;;;;;;;0.90;0.90;;;;;;;5.82;74.25;98067.75;5029042;28;20081;-77
2023/12/21 02:58:37;;;;;;;0.90;0.90;;;;;;;5.81;74.40;98060.66;5033755;28;20049;-78
2023/12/21 03:01:02;;;;;;;0.90;0.90;;;;;;;5.82;74.49;98051.84;5029553;28;20042;-77
2023/12/21 03:03:28;;;;;;;0.90;0.90;;;;;;;5.88;74.33;98045.03;5030998;28;20157;-79
2023/12/21 03:05:53;;;;;;;0.88;0.88;;;;;;;5.94;73.74;98035.53;5032286;28;20376;-77
2023/12/21 03:08:19;;;;;;;0.90;0.90;;;;;;;5.88;73.79;98034.44;5031999;28;20087;-78
2023/12/21 03:10:45;;;;;;;0.90;0.90;;;;;;;5.94;74.29;98023.22;5031292;28;20588;-77
2023/12/21 03:13:11;;;;;;;0.90;0.90;;;;;;;5.91;74.41;98034.59;5035896;28;20471;-80
2023/12/21 03:15:36;;;;;;;0.82;0.82;;;;;;;6.03;73.66;98019.97;5032977;28;20163;-78
2023/12/21 03:18:02;;;;;;;0.80;0.80;;;;;;;5.96;74.00;98024.16;5030854;28;20115;-77
2023/12/21 03:20:27;;;;;;;0.90;0.90;;;;;;;5.97;74.23;98012.72;5036769;28;20087;-78
2023/12/21 03:22:53;;;;;;;0.90;0.90;;;;;;;6.01;73.92;98012.00;5031812;28;20037;-78
2023/12/21 03:25:18;;;;;;;0.88;0.88;;;;;;;6.08;73.33;98018.38;5030688;28;20041;-78
2023/12/21 03:27:44;;;;;;;0.88;0.88;;;;;;;6.13;73.18;98011.50;5036127;28;20042;-77
2023/12/21 03:30:10;;;;;;;0.80;0.80;;;;;;;6.11;72.83;98010.56;5037795;28;20048;-78
2023/12/21 03:32:36;;;;;;;0.80;0.80;;;;;;;6.08;73.22;98005.16;5032388;28;20059;-77
2023/12/21 03:35:03;;;;;;;0.90;0.90;;;;;;;6.04;73.22;98006.81;5028589;28;20087;-78
2023/12/21 03:37:29;;;;;;;0.90;0.90;;;;;;;6.12;73.19;98002.66;5029526;28;20099;-78
2023/12/21 03:39:58;;;;;;;0.90;0.90;;;;;;;6.13;73.45;98014.16;5031837;28;20375;-77
2023/12/21 03:42:24;;;;;;;0.80;0.80;;;;;;;6.09;73.74;97999.94;5032083;28;20040;-78
2023/12/21 03:44:49;;;;;;;0.88;0.88;;;;;;;6.19;72.66;97987.91;5032534;28;20037;-78
2023/12/21 03:47:15;;;;;;;0.90;0.90;;;;;;;6.18;73.57;97988.75;5035204;28;20121;-77
2023/12/21 03:49:40;;;;;;;0.90;0.90;;;;;;;6.14;73.87;97989.50;5028358;28;20037;-79
2023/12/21 03:52:06;;;;;;;0.90;0.90;;;;;;;6.09;73.93;98006.97;5044905;28;20048;-78
2023/12/21 03:54:31;;;;;;;0.80;0.80;;;;;;;6.00;74.59;97993.41;5033314;28;20053;-77
2023/12/21 03:56:57;;;;;;;0.90;0.90;;;;;;;5.94;74.96;97991.47;5032796;28;20514;-78
2023/12/21 03:59:22;;;;;;;0.90;0.90;;;;;;;5.78;76.11;97995.25;5028472;28;20088;-78
2023/12/21 04:01:48;;;;;;;0.90;0.90;;;;;;;5.59;77.69;97983.09;5029623;28;20843;-78
2023/12/21 04:04:13;;;;;;;0.90;0.90;;;;;;;5.55;78.39;97967.06;5032165;28;20051;-78
2023/12/21 04:06:39;;;;;;;0.90;0.90;;;;;;;5.57;77.61;97983.91;5033289;28;20099;-78
2023/12/21 04:09:04;;;;;;;0.80;0.80;;;;;;;5.48;78.48;97981.81;5028397;28;22087;-78
2023/12/21 04:11:30;;;;;;;0.90;0.90;;;;;;;5.40;78.99;97994.75;5031079;28;20161;-79
2023/12/21 04:13:55;;;;;;;0.80;0.80;;;;;;;5.31;80.44;97972.34;5029313;28;20440;-79
2023/12/21 04:16:20;;;;;;;0.90;0.90;;;;;;;5.33;80.47;97975.97;5030697;28;20041;-78
2023/12/21 04:18:46;;;;;;;0.90;0.90;;;;;;;5.46;79.86;97953.50;5028239;28;20080;-78
2023/12/21 04:21:11;;;;;;;0.90;0.90;;;;;;;5.26;80.85;97953.66;5029598;28;20152;-78
2023/12/21 04:23:37;;;;;;;0.90;0.90;;;;;;;5.27;81.07;97952.84;5033389;28;20043;-78
2023/12/21 04:26:02;;;;;;;1.00;1.00;;;;;;;5.37;80.54;97952.34;5030303;28;20045;-79
2023/12/21 04:28:28;;;;;;;1.00;1.00;;;;;;;5.35;80.70;97930.19;5020959;28;20036;-78
2023/12/21 04:30:54;;;;;;;0.90;0.90;;;;;;;5.34;80.97;97944.28;5031178;28;20041;-78
2023/12/21 04:33:19;;;;;;;0.90;0.90;;;;;;;5.31;80.87;97944.16;5029789;28;20098;-78
2023/12/21 04:35:45;;;;;;;1.00;1.00;;;;;;;5.47;79.63;97935.06;5030827;28;20084;-78
2023/12/21 04:38:12;;;;;;;0.90;0.90;;;;;;;5.42;80.40;97933.09;5029822;28;20037;-79
2023/12/21 04:40:38;;;;;;;1.00;1.00;;;;;;;5.46;80.02;97932.31;5032600;28;20048;-78
2023/12/21 04:43:04;;;;;;;1.00;1.00;;;;;;;5.42;80.74;97931.34;5035827;28;20596;-77
2023/12/21 04:45:29;;;;;;;0.90;0.90;;;;;;;5.51;80.17;97923.75;5033770;28;20041;-77
2023/12/21 04:47:55;;;;;;;0.90;0.90;;;;;;;5.50;80.58;97931.59;5028301;28;20518;-77
2023/12/21 04:50:20;;;;;;;0.90;0.90;;;;;;;5.56;79.85;97919.50;5032082;28;20048;-77
2023/12/21 04:52:46;;;;;;;0.90;0.90;;;;;;;5.46;80.56;97930.59;5030979;28;20044;-77
2023/12/21 04:55:13;;;;;;;0.90;0.90;;;;;;;5.44;81.22;97907.56;5033675;28;20033;-78
2023/12/21 04:57:38;;;;;;;0.98;0.98;;;;;;;5.48;81.65;97899.81;5032034;28;20438;-78
2023/12/21 05:00:07;;;;;;;1.00;1.00;;;;;;;5.49;81.79;97900.69;5036219;28;20497;-77
2023/12/21 05:02:32;;;;;;;1.00;1.00;;;;;;;5.48;81.47;97883.03;5031091;28;20045;-77
2023/12/21 05:04:57;;;;;;;0.80;0.80;;;;;;;5.42;82.75;97875.78;5037617;28;20045;-77
2023/12/21 05:07:23;;;;;;;0.90;0.90;;;;;;;5.47;81.81;97892.72;5031781;28;20380;-77
2023/12/21 05:09:48;;;;;;;0.98;0.98;;;;;;;5.45;81.46;97893.50;5034162;28;20045;-77
2023/12/21 05:12:14;;;;;;;0.90;0.90;;;;;;;5.45;82.01;97898.78;5033747;28;20076;-77
2023/12/21 05:14:39;;;;;;;0.90;0.90;;;;;;;5.43;81.95;97900.50;5034508;28;20037;-76
2023/12/21 05:17:05;;;;;;;0.90;0.90;;;;;;;5.38;82.44;97906.50;5034397;28;20076;-76
2023/12/21 05:19:30;;;;;;;0.90;0.90;;;;;;;5.42;82.49;97889.00;5038011;28;20661;-78
2023/12/21 05:21:57;;;;;;;0.98;0.98;;;;;;;5.38;82.95;97895.03;5032488;28;20613;-76
2023/12/21 05:24:24;;;;;;;0.93;0.93;;;;;;;5.43;82.13;97893.47;5034854;28;20057;-77
2023/12/21 05:26:50;;;;;;;0.80;0.80;;;;;;;5.59;81.66;97897.53;5034049;28;20603;-79
2023/12/21 05:29:36;;;;;;;0.90;0.90;;;;;;;5.57;81.23;97889.53;5032336;28;20041;-80
2023/12/21 05:32:07;;;;;;;0.90;0.90;;;;;;;5.50;82.02;97876.03;5032153;28;20050;-78
2023/12/21 05:34:42;;;;;;;1.00;1.00;;;;;;;5.53;82.12;97866.47;5032015;28;20859;-78
2023/12/21 05:37:07;;;;;;;0.90;0.90;;;;;;;5.53;82.06;97866.47;5031882;28;20140;-78
2023/12/21 05:39:35;;;;;;;0.90;0.90;;;;;;;5.54;81.54;97859.44;5032800;28;20041;-78
2023/12/21 05:42:00;;;;;;;;;;;;;;;5.55;81.43;97861.22;5034384;28;20056;-78
2023/12/21 05:44:25;;;;;;;1.00;1.00;;;;;;;5.51;82.28;97857.59;5030069;28;20317;-78
2023/12/21 05:46:51;;;;;;;0.90;0.90;;;;;;;5.57;81.07;97860.44;5032497;28;20056;-80
2023/12/21 05:49:16;;;;;;;0.90;0.90;;;;;;;5.58;81.02;97862.25;5036850;28;20669;-77
2023/12/21 05:51:42;;;;;;;0.90;0.90;;;;;;;5.62;80.91;97860.59;5031188;28;20116;-78
2023/12/21 05:54:07;;;;;;;0.90;0.90;;;;;;;5.65;81.15;97848.38;5032672;28;20403;-78
2023/12/21 05:56:35;;;;;;;0.90;0.90;;;;;;;5.63;81.09;97859.75;5030229;28;20069;-78
2023/12/21 05:59:01;;;;;;;0.90;0.90;;;;;;;5.74;80.61;97839.84;5032127;28;20049;-78
2023/12/21 06:01:26;;;;;;;0.90;0.90;;;;;;;5.81;79.61;97843.59;5032777;28;20052;-80
2023/12/21 06:03:52;;;;;;;0.90;0.90;;;;;;;5.81;80.03;97827.72;5047585;28;20129;-79
2023/12/21 06:06:17;;;;;;;0.90;0.90;;;;;;;5.91;79.72;97832.47;5032690;28;20033;-79
2023/12/21 06:08:42;;;;;;;0.80;0.80;;;;;;;5.90;79.29;97831.56;5047955;28;20034;-79
2023/12/21 06:11:08;;;;;;;0.90;0.90;;;;;;;5.99;78.69;97835.38;5031333;28;20037;-79
2023/12/21 06:13:33;;;;;;;0.82;0.82;;;;;;;6.14;77.86;97815.59;5031565;28;20037;-80
2023/12/21 06:15:59;;;;;;;0.90;0.90;;;;;;;6.18;77.43;97816.63;5032291;28;20037;-78
2023/12/21 06:18:24;;;;;;;0.70;0.70;;;;;;;6.28;77.06;97794.84;5035892;28;20132;-78
2023/12/21 06:20:49;;;;;;;0.80;0.80;;;;;;;6.20;77.38;97796.34;5011800;28;20051;-79
2023/12/21 06:23:15;;;;;;;0.77;0.77;;;;;;;6.20;77.55;97799.00;5034234;28;20029;-77
2023/12/21 06:25:40;;;;;;;0.80;0.80;;;;;;;6.28;77.30;97780.72;5035060;28;20048;-79
2023/12/21 06:28:06;;;;;;;0.88;0.88;;;;;;;6.16;77.82;97766.22;5027739;28;20135;-79
2023/12/21 06:30:33;;;;;;;0.90;0.90;;;;;;;6.23;78.06;97766.41;5030131;28;20155;-79
2023/12/21 06:33:02;;;;;;;0.80;0.80;;;;;;;6.24;77.50;97761.16;5035554;28;20086;-78
2023/12/21 06:35:28;;;;;;;0.80;0.80;;;;;;;6.29;77.55;97766.59;5031607;28;20032;-78
2023/12/21 06:37:53;;;;;;;0.80;0.80;;;;;;;6.35;77.23;97761.50;5044400;28;20037;-79
2023/12/21 06:40:18;;;;;;;0.80;0.80;;;;;;;6.35;77.52;97756.19;5032165;28;20044;-78
2023/12/21 06:42:44;;;;;;;0.80;0.80;;;;;;;6.41;76.98;97749.31;5046972;28;20034;-78
2023/12/21 06:45:11;;;;;;;0.80;0.80;;;;;;;6.40;77.10;97754.56;5028889;28;20032;-79
2023/12/21 06:47:37;;;;;;;0.80;0.80;;;;;;;6.39;76.91;97766.03;5031359;28;20041;-80
2023/12/21 06:50:03;;;;;;;0.80;0.80;;;;;;;6.39;77.22;97748.38;5029979;28;20041;-81
2023/12/21 06:52:29;;;;;;;0.80;0.80;;;;;;;6.44;77.23;97745.88;5032752;28;20059;-78
2023/12/21 06:55:00;;;;;;;0.80;0.80;;;;;;;6.47;77.13;97747.69;5030959;28;20496;-78
2023/12/21 06:57:25;;;;;;;0.80;0.80;;;;;;;6.47;77.47;97750.34;5030402;28;20052;-80
2023/12/21 06:59:53;;;;;;;0.80;0.80;;;;;;;6.56;77.01;97754.16;5027395;28;20037;-78
2023/12/21 07:02:21;;;;;;;0.85;0.85;;;;;;;6.47;77.28;97734.44;5029474;28;20033;-82
2023/12/21 07:04:49;;;;;;;0.80;0.80;;;;;;;6.53;77.73;97747.88;5030454;28;20042;-78
2023/12/21 07:07:17;;;;;;;0.80;0.80;;;;;;;6.52;77.50;97731.09;5029735;28;20181;-78
2023/12/21 07:09:43;;;;;;;0.82;0.82;;;;;;;6.47;78.23;97735.38;5028260;28;20120;-81
2023/12/21 07:12:11;;;;;;;0.73;0.73;;;;;;;6.50;77.89;97737.19;5030898;28;20179;-81
2023/12/21 07:14:42;;;;;;;0.73;0.73;;;;;;;6.54;77.75;97728.47;5029185;28;20037;-79
2023/12/21 07:17:10;;;;;;;0.80;0.80;;;;;;;6.59;77.16;97721.56;5026630;28;20407;-78
2023/12/21 07:19:47;;;;;;;0.80;0.80;;;;;;;6.59;77.33;97724.22;5030915;28;20037;-78
2023/12/21 07:22:12;;;;;;;0.90;0.90;;;;;;;6.55;77.51;97724.97;5030768;28;20033;-78
2023/12/21 07:24:38;;;;;;;0.80;0.80;;;;;;;6.64;76.92;97722.59;5029472;28;20040;-78
2023/12/21 07:27:03;;;;;;;0.80;0.80;;;;;;;6.71;77.26;97713.97;5030685;28;20634;-78
2023/12/21 07:29:29;;;;;;;0.90;0.90;;;;;;;6.71;77.01;97716.63;5027638;28;20034;-78
2023/12/21 07:31:54;;;;;;;0.73;0.73;;;;;;;6.63;77.43;97713.75;5029791;28;20044;-79
2023/12/21 07:34:20;;;;;;;0.80;0.80;;;;;;;6.58;78.18;97706.53;5031879;28;20145;-79
2023/12/21 07:36:45;;;;;;;0.80;0.80;;;;;;;6.50;78.26;97694.78;5033690;28;20075;-79
2023/12/21 07:39:11;;;;;;;0.80;0.80;;;;;;;6.50;78.38;97697.44;5035059;28;20072;-79
2023/12/21 07:41:37;;;;;;;0.80;0.80;;;;;;;6.58;78.17;97680.91;5036417;28;20095;-79
2023/12/21 07:44:02;;;;;;;0.80;0.80;;;;;;;6.59;77.85;97680.06;5031581;28;20128;-79
2023/12/21 07:46:29;;;;;;;0.80;0.80;;;;;;;6.55;78.47;97671.97;5034835;28;20154;-79
2023/12/21 07:48:54;;;;;;;0.65;0.65;;;;;;;6.64;77.78;97675.78;5036163;28;20041;-79
2023/12/21 07:51:19;;;;;;;0.80;0.80;;;;;;;6.70;77.50;97688.28;5031316;28;20041;-80
2023/12/21 07:53:45;;;;;;;0.80;0.80;;;;;;;6.73;77.43;97675.13;5031042;28;20041;-79
2023/12/21 07:56:10;;;;;;;0.80;0.80;;;;;;;6.76;77.43;97672.56;5043890;28;20033;-78
2023/12/21 07:58:36;;;;;;;0.80;0.80;;;;;;;6.78;77.48;97675.25;5028797;28;20045;-80
2023/12/21 08:01:03;;;;;;;0.80;0.80;;;;;;;6.80;77.05;97663.81;5032625;28;20041;-80
2023/12/21 08:03:42;;;;;;;0.80;0.80;;;;;;;6.77;77.74;97678.78;5029411;28;20378;-79
2023/12/21 08:17:51;;;;;;;0.80;0.80;;;;;;;6.82;77.75;97664.78;5019686;28;20084;-79
2023/12/21 08:20:16;;;;;;;0.70;0.70;;;;;;;6.81;77.79;97663.00;5032665;28;20040;-77
2023/12/21 08:22:43;;;;;;;0.80;0.80;;;;;;;6.91;77.41;97656.19;5028383;28;20040;-77
2023/12/21 08:25:09;;;;;;;0.85;0.85;;;;;;;6.92;77.54;97657.97;5030906;28;20038;-77
2023/12/21 08:27:34;;;;;;;0.80;0.80;;;;;;;6.96;77.56;97645.69;5029184;28;20041;-81
2023/12/21 08:30:00;;;;;;;0.80;0.80;;;;;;;6.94;78.22;97643.88;5030709;28;20407;-82
2023/12/21 08:32:27;;;;;;;0.70;0.70;;;;;;;6.90;77.81;97646.44;5030603;28;20045;-79
2023/12/21 08:34:52;;;;;;;;;;;;;;;6.89;78.44;97656.09;5036537;28;20115;-79
2023/12/21 08:37:18;;;;;;;0.90;0.90;;;;;;;7.02;78.11;97645.84;5030716;28;20059;-79
2023/12/21 08:39:43;;;;;;;0.70;0.70;;;;;;;6.84;78.90;97659.50;5033265;28;21783;-81
2023/12/21 08:42:09;;;;;;;0.80;0.80;;;;;;;6.85;78.93;97651.63;5034131;28;20040;-79
2023/12/21 08:44:37;;;;;;;0.70;0.70;;;;;;;6.85;79.17;97658.63;5037759;28;20373;-78
2023/12/21 08:47:05;;;;;;;0.73;0.73;;;;;;;6.91;78.49;97651.75;5032955;28;20090;-79
2023/12/21 08:49:30;;;;;;;0.88;0.88;;;;;;;7.00;78.56;97658.16;5031705;28;20063;-79
2023/12/21 08:51:55;;;;;;;0.80;0.80;;;;;;;7.08;77.47;97651.28;5031904;28;20041;-78
2023/12/21 08:54:21;;;;;;;0.80;0.80;;;;;;;7.16;77.15;97639.13;5030054;28;20037;-78
2023/12/21 08:56:46;;;;;;;0.80;0.80;;;;;;;7.16;77.24;97623.22;5030816;28;20733;-78
2023/12/21 08:59:12;;;;;;;0.80;0.80;;;;;;;7.11;77.69;97617.78;5026473;28;20091;-78
2023/12/21 09:01:39;;;;;;;0.90;0.90;;;;;;;7.17;77.53;97614.38;5030309;28;20140;-77
2023/12/21 09:04:07;;;;;;;0.70;0.70;;;;;;;7.14;77.36;97614.31;5030184;28;20047;-78
2023/12/21 09:06:32;;;;;;;0.80;0.80;;;;;;;7.25;77.00;97606.63;5031007;28;20120;-77
2023/12/21 09:08:59;;;;;;;0.73;0.73;;;;;;;7.31;77.03;97614.72;5030293;28;20067;-78
2023/12/21 09:11:26;;;;;;;0.90;0.90;;;;;;;7.21;76.92;97603.00;5034638;28;20037;-79
2023/12/21 09:13:51;;;;;;;0.80;0.80;;;;;;;7.31;76.73;97597.03;5022424;28;20044;-79
2023/12/21 09:16:17;;;;;;;0.70;0.70;;;;;;;7.25;76.90;97574.78;5030432;28;20032;-79
2023/12/21 09:18:44;;;;;;;0.80;0.80;;;;;;;7.25;77.23;97583.63;5032020;28;20052;-79
2023/12/21 09:21:10;;;;;;;0.80;0.80;;;;;;;7.28;76.71;97574.84;5029196;28;20033;-80
2023/12/21 09:23:35;;;;;;;0.80;0.80;;;;;;;7.32;76.99;97568.75;5030275;28;20279;-79
2023/12/21 09:26:01;;;;;;;0.80;0.80;;;;;;;7.42;76.73;97552.19;5029832;28;20037;-79
2023/12/21 09:28:26;;;;;;;0.70;0.70;;;;;;;7.34;76.82;97533.44;5034188;28;20033;-80
2023/12/21 09:30:51;;;;;;;0.80;0.80;;;;;;;7.37;76.36;97538.81;5030082;28;20041;-79
2023/12/21 09:33:18;;;;;;;0.70;0.70;;;;;;;7.39;76.67;97558.31;5032129;28;20043;-79
2023/12/21 09:35:44;;;;;;;0.80;0.80;;;;;;;7.36;77.05;97563.56;5031246;28;20155;-81
2023/12/21 09:38:09;;;;;;;0.80;0.80;;;;;;;7.48;76.31;97559.41;5034098;28;20131;-80
2023/12/21 09:40:35;;;;;;;0.80;0.80;;;;;;;7.48;76.34;97557.63;5032744;28;20092;-80
2023/12/21 09:43:03;;;;;;;0.80;0.80;;;;;;;7.47;76.38;97537.25;5031797;28;20123;-81
2023/12/21 09:45:31;;;;;;;0.73;0.73;;;;;;;7.54;76.20;97531.22;5033727;28;20372;-81
2023/12/21 09:47:57;;;;;;;0.70;0.70;;;;;;;7.50;76.04;97528.47;5046397;28;20048;-80
2023/12/21 09:50:24;;;;;;;0.80;0.80;;;;;;;7.48;76.29;97515.19;5027496;28;20060;-78
2023/12/21 09:52:50;;;;;;;0.80;0.80;;;;;;;7.53;76.39;97512.63;5042374;28;20650;-77
2023/12/21 09:55:19;;;;;;;0.88;0.88;;;;;;;7.49;76.20;97494.84;5029713;28;20033;-77
2023/12/21 09:57:46;;;;;;;0.80;0.80;;;;;;;7.58;76.03;97487.06;5028991;28;20564;-77
2023/12/21 10:00:12;;;;;;;0.70;0.70;;;;;;;7.63;76.29;97490.72;5030794;28;20083;-78
2023/12/21 10:02:38;;;;;;;0.90;0.90;;;;;;;7.60;75.81;97472.06;5029772;28;20036;-77
2023/12/21 10:05:04;;;;;;;0.80;0.80;;;;;;;7.60;75.96;97503.91;5032361;28;20045;-78
2023/12/21 10:07:30;;;;;;;0.80;0.80;;;;;;;7.65;75.89;97492.53;5031327;28;20044;-78
2023/12/21 10:09:57;;;;;;;0.80;0.80;;;;;;;7.69;75.43;97480.22;5034157;28;20129;-78
2023/12/21 10:12:23;;;;;;;0.90;0.90;;;;;;;7.71;75.83;97479.41;5031853;28;20029;-77
2023/12/21 10:14:58;;;;;;;0.80;0.80;;;;;;;7.65;76.09;97460.66;5034235;28;20473;-78
2023/12/21 10:17:24;;;;;;;0.80;0.80;;;;;;;7.66;75.72;97443.88;5028483;28;21877;-77
2023/12/21 10:19:49;;;;;;;0.80;0.80;;;;;;;7.69;76.17;97440.41;5029655;28;20530;-78
2023/12/21 10:22:15;;;;;;;0.70;0.70;;;;;;;7.77;75.90;97417.56;5027049;28;20065;-77
2023/12/21 10:24:42;;;;;;;0.80;0.80;;;;;;;7.80;75.72;97419.34;5031497;28;20067;-79
2023/12/21 10:27:12;;;;;;;;;;;;;;;7.87;75.30;97434.56;5028978;28;20037;-79
2023/12/21 10:29:37;;;;;;;0.80;0.80;;;;;;;7.84;75.21;97418.56;5030394;28;19927;-78
2023/12/21 10:32:03;;;;;;;0.80;0.80;;;;;;;7.86;75.42;97406.22;5028510;28;20029;-78
2023/12/21 10:34:28;;;;;;;0.70;0.70;;;;;;;7.86;75.81;97393.84;5028570;28;20115;-78
2023/12/21 10:36:56;;;;;;;0.70;0.70;;;;;;;7.88;75.15;97380.56;5029204;28;20156;-77
2023/12/21 10:39:22;;;;;;;0.80;0.80;;;;;;;7.89;75.20;97377.94;5030032;28;20041;-80
2023/12/21 10:41:48;;;;;;;0.80;0.80;;;;;;;8.02;74.71;97367.53;5026927;28;20033;-79
2023/12/21 10:44:17;;;;;;;0.80;0.80;;;;;;;8.02;75.11;97351.59;5028604;28;20128;-79
2023/12/21 10:46:43;;;;;;;0.80;0.80;;;;;;;8.04;75.22;97336.56;5030537;28;20040;-80
2023/12/21 10:49:12;;;;;;;0.70;0.70;;;;;;;7.97;75.38;97328.50;5028426;28;20402;-79
2023/12/21 10:51:40;;;;;;;0.80;0.80;;;;;;;8.02;75.05;97312.66;5031964;28;20052;-78
2023/12/21 10:54:11;;;;;;;0.80;0.80;;;;;;;8.12;75.15;97330.53;5029393;28;21050;-77
2023/12/21 10:56:44;;;;;;;0.70;0.70;;;;;;;8.12;75.06;97313.69;5031447;28;20037;-79
2023/12/21 10:59:12;;;;;;;0.70;0.70;;;;;;;8.19;75.31;97323.53;5027420;28;20107;-79
2023/12/21 11:01:38;;;;;;;0.70;0.70;;;;;;;8.19;75.00;97300.53;5029019;28;20044;-80
2023/12/21 11:04:05;;;;;;;0.80;0.80;;;;;;;8.10;75.14;97288.88;5032302;28;20041;-80
2023/12/21 11:06:33;;;;;;;0.80;0.80;;;;;;;8.06;75.73;97295.00;5030791;28;20045;-79
2023/12/21 11:09:00;;;;;;;0.80;0.80;;;;;;;8.11;75.15;97277.38;5030849;28;20680;-80
2023/12/21 11:11:26;;;;;;;0.80;0.80;;;;;;;8.10;75.43;97257.91;5027736;28;20150;-79
2023/12/21 11:13:54;;;;;;;0.70;0.70;;;;;;;8.08;75.31;97264.94;5029525;28;20064;-79
2023/12/21 11:16:27;;;;;;;0.70;0.70;;;;;;;8.11;74.99;97254.38;5030159;28;20479;-78
2023/12/21 11:18:56;;;;;;;0.70;0.70;;;;;;;8.16;75.04;97243.81;5027292;28;20037;-80
2023/12/21 11:21:24;;;;;;;0.80;0.80;;;;;;;8.11;75.13;97222.50;5031549;28;20076;-80
2023/12/21 11:23:50;;;;;;;0.80;0.80;;;;;;;8.17;75.04;97227.00;5029064;28;20040;-79
2023/12/21 11:26:27;;;;;;;0.70;0.70;;;;;;;8.28;74.59;97209.44;5028406;28;20075;-79
2023/12/21 11:29:13;;;;;;;0.80;0.80;;;;;;;8.21;75.12;97223.50;5028820;28;20041;-80
2023/12/21 11:31:41;;;;;;;0.80;0.80;;;;;;;8.21;74.92;97231.47;5030308;28;20044;-79
2023/12/21 11:34:10;;;;;;;0.70;0.70;;;;;;;8.22;74.89;97227.94;5026504;28;20033;-80
2023/12/21 11:36:35;;;;;;;0.80;0.80;;;;;;;8.28;74.62;97206.75;5027788;28;20048;-79
2023/12/21 11:39:07;;;;;;;0.70;0.70;;;;;;;8.22;74.62;97199.63;5029946;28;20045;-78
2023/12/21 11:41:32;;;;;;;0.70;0.70;;;;;;;8.28;74.68;97198.78;5029525;28;20483;-77
2023/12/21 11:44:02;;;;;;;0.77;0.77;;;;;;;8.23;74.88;97184.56;5027441;28;20037;-77
2023/12/21 11:46:28;;;;;;;0.80;0.80;;;;;;;8.21;75.54;97194.28;5028100;28;20108;-77
2023/12/21 11:48:54;;;;;;;0.70;0.70;;;;;;;8.19;75.50;97180.06;5026802;28;20037;-78
2023/12/21 11:51:19;;;;;;;0.80;0.80;;;;;;;8.21;75.86;97178.34;5029613;28;20044;-78